Time;durP1;ratioP1;P1;durP2;ratioP2;P2;SDS_P1;SDS_P2;PMS_P1;PMS_P2;Temp;Humidity;BMP_temperature;BMP_pressure;BME280_temperature;BME280_humidity;BME280_pressure;Samples;Min_cycle;Max_cycle;Signal;HPM_P1;HPM_P2
2023/04/13 00:02:09;;;;;;;;;;;;;;;-144.99;100.00;52488.84;4987490;28;20033;-65
2023/04/13 00:04:35;;;;;;;;;;;;;;;-144.99;100.00;52494.97;4988398;28;19926;-65
2023/04/13 00:07:02;;;;;;;;;;;;;;;-144.99;100.00;52431.78;4994085;28;19930;-65
2023/04/13 00:09:29;;;;;;;;;;;;;;;-144.99;100.00;52439.94;4991654;28;20024;-65
2023/04/13 00:11:57;;;;;;;;;;;;;;;-144.99;100.00;52415.47;4994978;28;19932;-65
2023/04/13 00:14:26;;;;;;;;;;;;;;;-144.99;100.00;52452.16;4982088;28;19934;-65
2023/04/13 00:16:55;;;;;;;;;;;;;;;-144.99;100.00;52497.00;4983633;28;19930;-65
2023/04/13 00:19:22;;;;;;;;;;;;;;;-144.99;100.00;52484.78;4996941;28;19929;-67
2023/04/13 00:21:49;;;;;;;;;;;;;;;-144.99;100.00;52456.25;4977740;28;19933;-66
2023/04/13 00:24:16;;;;;;;;;;;;;;;-144.99;100.00;52472.56;4998469;28;20336;-67
2023/04/13 00:26:43;;;;;;;;;;;;;;;-144.99;100.00;52431.78;4990753;28;19925;-69
2023/04/13 00:29:10;;;;;;;;;;;;;;;-144.99;100.00;52478.66;4991344;28;20040;-68
2023/04/13 00:31:37;;;;;;;;;;;;;;;-144.99;100.00;52444.03;4993188;28;19937;-65
2023/04/13 00:34:04;;;;;;;;;;;;;;;-144.99;100.00;52448.09;4994723;28;19933;-64
2023/04/13 00:36:31;;;;;;;;;;;;;;;-144.99;100.00;52452.16;4993378;28;19973;-65
2023/04/13 00:38:58;;;;;;;;;;;;;;;-144.99;100.00;52480.72;4991586;28;19926;-65
2023/04/13 00:41:25;;;;;;;;;;;;;;;-144.99;100.00;52464.41;4997033;28;20097;-64
2023/04/13 00:43:52;;;;;;;;;;;;;;;-144.99;100.00;52448.09;4993178;28;20102;-64
2023/04/13 00:46:19;;;;;;;;;;;;;;;-144.99;100.00;52448.09;4997297;28;19926;-64
2023/04/13 00:48:46;;;;;;;;;;;;;;;-144.99;100.00;52444.03;5004281;28;19944;-64
2023/04/13 00:51:15;;;;;;;;;;;;;;;-144.99;100.00;52448.09;4984157;28;19934;-64
2023/04/13 00:53:42;;;;;;;;;;;;;;;-144.99;100.00;52450.13;4985476;28;19936;-64
2023/04/13 00:56:09;;;;;;;;;;;;;;;-144.99;100.00;52452.16;4993918;28;19929;-64
2023/04/13 00:58:36;;;;;;;;;;;;;;;-144.99;100.00;52464.41;4999921;28;19995;-64
2023/04/13 01:01:03;;;;;;;;;;;;;;;-144.99;100.00;52468.47;4996003;28;20165;-64
2023/04/13 01:03:30;;;;;;;;;;;;;;;-144.99;100.00;52474.59;4994447;28;20408;-65
2023/04/13 01:06:04;;;;;;;;;;;;;;;-144.99;100.00;52501.09;4997940;28;20387;-65
2023/04/13 01:08:36;;;;;;;;;;;;;;;-144.99;100.00;52476.63;4987846;28;19967;-65
2023/04/13 01:11:04;;;;;;;;;;;;;;;-144.99;100.00;52472.56;4995734;28;20422;-65
2023/04/13 01:13:33;;;;;;;;;;;;;;;-144.99;100.00;52478.66;4993999;28;19930;-64
2023/04/13 01:16:03;;;;;;;;;;;;;;;-144.99;100.00;52480.72;4985265;28;19934;-64
2023/04/13 01:18:30;;;;;;;;;;;;;;;-144.99;100.00;52452.16;4995524;28;20000;-64
2023/04/13 01:20:58;;;;;;;;;;;;;;;-144.99;100.00;52476.63;4989362;28;19961;-64
2023/04/13 01:23:28;;;;;;;;;;;;;;;-144.99;100.00;52480.72;4996693;28;20351;-65
2023/04/13 01:25:57;;;;;;;;;;;;;;;-144.99;100.00;52427.72;4979806;28;20029;-64
2023/04/13 01:28:26;;;;;;;;;;;;;;;-144.99;100.00;52423.63;4985832;28;19945;-65
2023/04/13 01:30:54;;;;;;;;;;;;;;;-144.99;100.00;52480.72;4989846;28;20388;-64
2023/04/13 01:33:21;;;;;;;;;;;;;;;-144.99;100.00;52435.88;4987614;28;20207;-64
2023/04/13 01:35:49;;;;;;;;;;;;;;;-144.99;100.00;52411.41;4987718;28;20422;-64
2023/04/13 01:38:15;;;;;;;;;;;;;;;-144.99;100.00;52478.66;4989215;28;19996;-64
2023/04/13 01:40:43;;;;;;;;;;;;;;;-144.99;100.00;52468.47;4988357;28;20242;-64
2023/04/13 01:43:10;;;;;;;;;;;;;;;-144.99;100.00;52456.25;4996769;28;20040;-66
2023/04/13 01:45:46;;;;;;;;;;;;;;;-144.99;100.00;52462.34;4998557;28;20287;-65
2023/04/13 01:48:17;;;;;;;;;;;;;;;-144.99;100.00;52468.47;5002794;28;19926;-65
2023/04/13 01:50:45;;;;;;;;;;;;;;;-144.99;100.00;52431.78;4990781;28;19972;-65
2023/04/13 01:53:15;;;;;;;;;;;;;;;-144.99;100.00;52460.31;4995996;28;20061;-65
2023/04/13 01:55:43;;;;;;;;;;;;;;;-144.99;100.00;52488.84;4990604;28;19936;-65
2023/04/13 01:58:11;;;;;;;;;;;;;;;-144.99;100.00;52464.41;4992207;28;20350;-65
2023/04/13 02:00:40;;;;;;;;;;;;;;;-144.99;100.00;52501.09;4991885;28;19929;-66
2023/04/13 02:03:07;;;;;;;;;;;;;;;-144.99;100.00;52456.25;4995402;28;20565;-66
2023/04/13 02:05:35;;;;;;;;;;;;;;;-144.99;100.00;52468.47;4992125;28;19933;-64
2023/04/13 02:08:04;;;;;;;;;;;;;;;-144.99;100.00;52448.09;4979867;28;19940;-64
2023/04/13 02:10:31;;;;;;;;;;;;;;;-144.99;100.00;52468.47;4990824;28;19964;-64
2023/04/13 02:12:57;;;;;;;;;;;;;;;-144.99;100.00;52468.47;4992112;28;20159;-65
2023/04/13 02:15:24;;;;;;;;;;;;;;;-144.99;100.00;52497.00;4991356;28;19988;-64
2023/04/13 02:17:52;;;;;;;;;;;;;;;-144.99;100.00;52448.09;4990088;28;19993;-64
2023/04/13 02:20:18;;;;;;;;;;;;;;;-144.99;100.00;52464.41;4993748;28;19926;-64
2023/04/13 02:22:45;;;;;;;;;;;;;;;-144.99;100.00;52427.72;4992721;28;20388;-64
2023/04/13 02:25:14;;;;;;;;;;;;;;;-144.99;100.00;52452.16;4985022;28;20029;-64
2023/04/13 02:27:41;;;;;;;;;;;;;;;-144.99;100.00;52488.84;4995838;28;19978;-64
2023/04/13 02:30:09;;;;;;;;;;;;;;;-144.99;100.00;52517.41;4992995;28;19944;-65
2023/04/13 02:32:36;;;;;;;;;;;;;;;-144.99;100.00;52456.25;4991160;28;19929;-69
2023/04/13 02:35:04;;;;;;;;;;;;;;;-144.99;100.00;52488.84;4995823;28;20082;-67
2023/04/13 02:37:31;;;;;;;;;;;;;;;-144.99;100.00;52505.16;4992293;28;19937;-67
2023/04/13 02:39:58;;;;;;;;;;;;;;;-144.99;100.00;52480.72;4992906;28;19926;-67
2023/04/13 02:42:25;;;;;;;;;;;;;;;-144.99;100.00;52478.66;4994040;28;20331;-67
2023/04/13 02:44:51;;;;;;;;;;;;;;;-144.99;100.00;52444.03;4992637;28;20363;-67
2023/04/13 02:47:18;;;;;;;;;;;;;;;-144.99;100.00;52464.41;4999580;28;20358;-68
2023/04/13 02:49:46;;;;;;;;;;;;;;;-144.99;100.00;52476.63;4994377;28;19925;-69
2023/04/13 02:52:14;;;;;;;;;;;;;;;-144.99;100.00;52460.31;4991748;28;19930;-67
2023/04/13 02:54:42;;;;;;;;;;;;;;;-144.99;100.00;52464.41;4990711;28;19968;-67
2023/04/13 02:57:09;;;;;;;;;;;;;;;-144.99;100.00;52441.97;4987418;28;20024;-68
2023/04/13 02:59:36;;;;;;;;;;;;;;;-144.99;100.00;52454.22;4997437;28;20454;-67
2023/04/13 03:02:02;;;;;;;;;;;;;;;-144.99;100.00;52435.88;4994055;28;19930;-67
2023/04/13 03:04:29;;;;;;;;;;;;;;;-144.99;100.00;52480.72;4992263;28;19987;-67
2023/04/13 03:06:57;;;;;;;;;;;;;;;-144.99;100.00;52452.16;4990296;28;20419;-67
2023/04/13 03:09:25;;;;;;;;;;;;;;;-144.99;100.00;52464.41;4993476;28;19957;-67
2023/04/13 03:11:51;;;;;;;;;;;;;;;-144.99;100.00;52476.63;4995963;28;20280;-67
2023/04/13 03:14:20;;;;;;;;;;;;;;;-144.99;100.00;52484.78;4986638;28;19929;-67
2023/04/13 03:16:47;;;;;;;;;;;;;;;-144.99;100.00;52507.19;4981686;28;20029;-67
2023/04/13 03:19:15;;;;;;;;;;;;;;;-144.99;100.00;52464.41;4998138;28;20327;-66
2023/04/13 03:21:43;;;;;;;;;;;;;;;-144.99;100.00;52456.25;4992117;28;20035;-67
2023/04/13 03:24:10;;;;;;;;;;;;;;;-144.99;100.00;52419.56;4993846;28;19932;-67
2023/04/13 03:26:38;;;;;;;;;;;;;;;-144.99;100.00;52444.03;4991775;28;20411;-66
2023/04/13 03:29:04;;;;;;;;;;;;;;;-144.99;100.00;52450.13;4990188;28;20050;-67
2023/04/13 03:31:31;;;;;;;;;;;;;;;-144.99;100.00;52450.13;4990599;28;19996;-67
2023/04/13 03:33:57;;;;;;;;;;;;;;;-144.99;100.00;52460.31;4998924;28;19933;-66
2023/04/13 03:36:26;;;;;;;;;;;;;;;-144.99;100.00;52460.31;4995754;28;19926;-67
2023/04/13 03:38:52;;;;;;;;;;;;;;;-144.99;100.00;52509.25;4991003;28;20454;-65
2023/04/13 03:41:19;;;;;;;;;;;;;;;-144.99;100.00;52501.09;4993908;28;19933;-67
2023/04/13 03:43:46;;;;;;;;;;;;;;;-144.99;100.00;52476.63;4989397;28;19987;-67
2023/04/13 03:46:13;;;;;;;;;;;;;;;-144.99;100.00;52505.16;4995545;28;20342;-66
2023/04/13 03:48:40;;;;;;;;;;;;;;;-144.99;100.00;52466.44;5002292;28;19929;-66
2023/04/13 03:51:07;;;;;;;;;;;;;;;-144.99;100.00;52509.25;4988783;28;19929;-68
2023/04/13 03:53:35;;;;;;;;;;;;;;;-144.99;100.00;52435.88;4984393;28;20019;-67
2023/04/13 03:56:01;;;;;;;;;;;;;;;-144.99;100.00;52458.28;4990711;28;19984;-67
2023/04/13 03:58:28;;;;;;;;;;;;;;;-144.99;100.00;52484.78;4998583;28;19961;-64
2023/04/13 04:00:56;;;;;;;;;;;;;;;-144.99;100.00;52462.34;4992895;28;20000;-65
2023/04/13 04:03:24;;;;;;;;;;;;;;;-144.99;100.00;52468.47;4996262;28;19961;-65
2023/04/13 04:05:50;;;;;;;;;;;;;;;-144.99;100.00;52464.41;4998381;28;20379;-65
2023/04/13 04:08:17;;;;;;;;;;;;;;;-144.99;100.00;52497.00;4996987;28;19948;-65
2023/04/13 04:10:43;;;;;;;;;;;;;;;-144.99;100.00;52470.50;4999209;28;19976;-65
2023/04/13 04:13:10;;;;;;;;;;;;;;;-144.99;100.00;52488.84;4995545;28;20402;-65
2023/04/13 04:15:37;;;;;;;;;;;;;;;-144.99;100.00;52488.84;4995890;28;19936;-65
2023/04/13 04:18:05;;;;;;;;;;;;;;;-144.99;100.00;52431.78;4994830;28;21103;-64
2023/04/13 04:20:32;;;;;;;;;;;;;;;-144.99;100.00;52507.19;4994335;28;20464;-66
2023/04/13 04:23:00;;;;;;;;;;;;;;;-144.99;100.00;52480.72;4991222;28;20271;-64
2023/04/13 04:25:26;;;;;;;;;;;;;;;-144.99;100.00;52456.25;4992071;28;19934;-66
2023/04/13 04:27:56;;;;;;;;;;;;;;;-144.99;100.00;52435.88;4979753;28;19976;-66
2023/04/13 04:30:23;;;;;;;;;;;;;;;-144.99;100.00;52474.59;4992381;28;19941;-66
2023/04/13 04:32:51;;;;;;;;;;;;;;;-144.99;100.00;52452.16;4984031;28;20367;-66
2023/04/13 04:35:19;;;;;;;;;;;;;;;-144.99;100.00;52484.78;4992137;28;20070;-66
2023/04/13 04:37:48;;;;;;;;;;;;;;;-144.99;100.00;52448.09;4991450;28;19925;-66
2023/04/13 04:40:14;;;;;;;;;;;;;;;-144.99;100.00;52460.31;4996822;28;20044;-64
2023/04/13 04:42:41;;;;;;;;;;;;;;;-144.99;100.00;52444.03;4997579;28;19944;-64
2023/04/13 04:45:09;;;;;;;;;;;;;;;-144.99;100.00;52456.25;5007601;28;19933;-64
2023/04/13 04:47:40;;;;;;;;;;;;;;;-144.99;100.00;52419.56;5008468;28;20027;-64
2023/04/13 04:50:08;;;;;;;;;;;;;;;-144.99;100.00;52448.09;5009587;28;19995;-64
2023/04/13 04:52:36;;;;;;;;;;;;;;;-144.99;100.00;52466.44;4998401;28;19934;-65
2023/04/13 04:55:04;;;;;;;;;;;;;;;-144.99;100.00;52468.47;5004060;28;19952;-65
2023/04/13 04:57:31;;;;;;;;;;;;;;;-144.99;100.00;52448.09;4999114;28;19937;-64
2023/04/13 04:59:58;;;;;;;;;;;;;;;-144.99;100.00;52482.75;4996086;28;19977;-64
2023/04/13 05:02:24;;;;;;;;;;;;;;;-144.99;100.00;52435.88;5005927;28;19952;-64
2023/04/13 05:04:51;;;;;;;;;;;;;;;-144.99;100.00;52439.94;5000012;28;20372;-65
2023/04/13 05:07:18;;;;;;;;;;;;;;;-144.99;100.00;52415.47;4998117;28;19972;-65
2023/04/13 05:09:46;;;;;;;;;;;;;;;-144.99;100.00;52456.25;5004793;28;19925;-65
2023/04/13 05:12:13;;;;;;;;;;;;;;;-144.99;100.00;52480.72;5001446;28;20012;-65
2023/04/13 05:14:39;;;;;;;;;;;;;;;-144.99;100.00;52468.47;5011933;28;19925;-65
2023/04/13 05:17:06;;;;;;;;;;;;;;;-144.99;100.00;52444.03;5002584;28;19934;-68
2023/04/13 05:19:33;;;;;;;;;;;;;;;-144.99;100.00;52456.25;4994137;28;19972;-68
2023/04/13 05:22:00;;;;;;;;;;;;;;;-144.99;100.00;52480.72;4990404;28;20076;-67
2023/04/13 05:24:26;;;;;;;;;;;;;;;-144.99;100.00;52427.72;4994281;28;19925;-66
2023/04/13 05:26:55;;;;;;;;;;;;;;;-144.99;100.00;52439.94;4991154;28;19992;-67
2023/04/13 05:29:21;;;;;;;;;;;;;;;-144.99;100.00;52452.16;4990534;28;20017;-69
2023/04/13 05:31:48;;;;;;;;;;;;;;;-144.99;100.00;52444.03;4991221;28;19929;-68
2023/04/13 05:34:15;;;;;;;;;;;;;;;-144.99;100.00;52421.59;4984377;28;19974;-68
2023/04/13 05:36:41;;;;;;;;;;;;;;;-144.99;100.00;52484.78;4990813;28;19937;-66
2023/04/13 05:39:09;;;;;;;;;;;;;;;-144.99;100.00;52452.16;4993135;28;19930;-66
2023/04/13 05:41:36;;;;;;;;;;;;;;;-144.99;100.00;52431.78;4996466;28;20020;-65
2023/04/13 05:44:04;;;;;;;;;;;;;;;-144.99;100.00;52448.09;4998275;28;20302;-65
2023/04/13 05:46:30;;;;;;;;;;;;;;;-144.99;100.00;52448.09;4998348;28;19934;-65
2023/04/13 05:48:58;;;;;;;;;;;;;;;-144.99;100.00;52472.56;5002180;28;19926;-65
2023/04/13 05:51:24;;;;;;;;;;;;;;;-144.99;100.00;52450.13;5002214;28;19925;-66
2023/04/13 05:53:51;;;;;;;;;;;;;;;-144.99;100.00;52431.78;4987461;28;20222;-66
2023/04/13 05:56:18;;;;;;;;;;;;;;;-144.99;100.00;52454.22;4984344;28;19944;-66
2023/04/13 05:58:44;;;;;;;;;;;;;;;-144.99;100.00;52437.91;4991106;28;19980;-65
2023/04/13 06:01:12;;;;;;;;;;;;;;;-144.99;100.00;52431.78;4993911;28;20020;-65
2023/04/13 06:03:39;;;;;;;;;;;;;;;-144.99;100.00;52448.09;4976661;28;20006;-66
2023/04/13 06:06:06;;;;;;;;;;;;;;;-144.99;100.00;52439.94;4992732;28;19929;-67
2023/04/13 06:08:33;;;;;;;;;;;;;;;-144.99;100.00;52452.16;4991231;28;19988;-65
2023/04/13 06:10:59;;;;;;;;;;;;;;;-144.99;100.00;52435.88;4997933;28;20371;-65
2023/04/13 06:13:26;;;;;;;;;;;;;;;-144.99;100.00;52464.41;4988082;28;19992;-66
2023/04/13 06:15:53;;;;;;;;;;;;;;;-144.99;100.00;52419.56;4994565;28;19926;-65
2023/04/13 06:18:20;;;;;;;;;;;;;;;-144.99;100.00;52427.72;4987058;28;19965;-65
2023/04/13 06:20:48;;;;;;;;;;;;;;;-144.99;100.00;52407.31;4998864;28;19926;-67
2023/04/13 06:23:14;;;;;;;;;;;;;;;-144.99;100.00;52407.31;4994660;28;19925;-67
2023/04/13 06:25:41;;;;;;;;;;;;;;;-144.99;100.00;52488.84;4985053;28;20449;-67
2023/04/13 06:28:07;;;;;;;;;;;;;;;-144.99;100.00;52435.88;4994619;28;19926;-67
2023/04/13 06:30:34;;;;;;;;;;;;;;;-144.99;100.00;52456.25;4995495;28;19933;-66
2023/04/13 06:33:00;;;;;;;;;;;;;;;-144.99;100.00;52456.25;4989464;28;20404;-65
2023/04/13 06:35:29;;;;;;;;;;;;;;;-144.99;100.00;52435.88;4992921;28;19961;-65
2023/04/13 06:37:57;;;;;;;;;;;;;;;-144.99;100.00;52435.88;4987074;28;19932;-65
2023/04/13 06:40:24;;;;;;;;;;;;;;;-144.99;100.00;52439.94;4996563;28;20028;-65
2023/04/13 06:42:51;;;;;;;;;;;;;;;-144.99;100.00;52468.47;4989305;28;20386;-69
2023/04/13 06:45:17;;;;;;;;;;;;;;;-144.99;100.00;52403.25;4998626;28;19930;-68
2023/04/13 06:47:44;;;;;;;;;;;;;;;-144.99;100.00;52476.63;5001025;28;19925;-67
2023/04/13 06:50:12;;;;;;;;;;;;;;;-144.99;100.00;52413.44;4998466;28;20031;-67
2023/04/13 06:52:41;;;;;;;;;;;;;;;-144.99;100.00;52460.31;4993408;28;19952;-67
2023/04/13 06:55:08;;;;;;;;;;;;;;;-144.99;100.00;52419.56;4983189;28;20383;-67
2023/04/13 06:57:34;;;;;;;;;;;;;;;-144.99;100.00;52411.41;4992923;28;21435;-67
2023/04/13 07:00:01;;;;;;;;;;;;;;;-144.99;100.00;52393.06;4993950;28;19988;-66
2023/04/13 07:02:28;;;;;;;;;;;;;;;-144.99;100.00;52444.03;4986339;28;19956;-69
2023/04/13 07:04:54;;;;;;;;;;;;;;;-144.99;100.00;52423.63;4985053;28;20036;-67
2023/04/13 07:07:21;;;;;;;;;;;;;;;-144.99;99.59;52423.63;4990717;28;19926;-68
2023/04/13 07:09:48;;;;;;;;;;;;;;;-144.99;100.00;52488.84;4994146;28;20725;-68
2023/04/13 07:12:15;;;;;;;;;;;;;;;-144.99;100.00;52427.72;4987877;28;20310;-69
2023/04/13 07:14:42;;;;;;;;;;;;;;;-144.99;99.93;52435.88;4996534;28;20040;-68
2023/04/13 07:17:08;;;;;;;;;;;;;;;-144.99;99.93;52433.81;4983473;28;19973;-68
2023/04/13 07:19:35;;;;;;;;;;;;;;;-144.99;100.00;52431.78;4998343;28;19937;-68
2023/04/13 07:22:03;;;;;;;;;;;;;;;-144.99;100.00;52399.19;4990465;28;19937;-68
2023/04/13 07:24:29;;;;;;;;;;;;;;;-144.99;100.00;52435.88;4983405;28;19949;-68
2023/04/13 07:27:00;;;;;;;;;;;;;;;-144.99;100.00;52446.06;4993585;28;19934;-68
2023/04/13 07:29:27;;;;;;;;;;;;;;;-144.99;100.00;52419.56;4992435;28;19926;-68
2023/04/13 07:31:58;;;;;;;;;;;;;;;-144.99;100.00;52403.25;4994184;28;20083;-69
2023/04/13 07:34:25;;;;;;;;;;;;;;;-144.99;100.00;52435.88;4995384;28;20004;-69
2023/04/13 07:36:51;;;;;;;;;;;;;;;-144.99;100.00;52399.19;4991320;28;20495;-70
2023/04/13 07:39:19;;;;;;;;;;;;;;;-144.99;100.00;52433.81;4995933;28;19930;-70
2023/04/13 07:41:46;;;;;;;;;;;;;;;-144.99;100.00;52374.72;4998892;28;20003;-70
2023/04/13 07:44:14;;;;;;;;;;;;;;;-144.99;100.00;52395.09;4996824;28;19933;-68
2023/04/13 07:46:41;;;;;;;;;;;;;;;-144.99;100.00;52423.63;5002187;28;19930;-69
2023/04/13 07:49:08;;;;;;;;;;;;;;;-144.99;100.00;52413.44;5003409;28;19926;-69
2023/04/13 07:51:34;;;;;;;;;;;;;;;-144.99;100.00;52407.31;4994919;28;20217;-69
2023/04/13 07:54:01;;;;;;;;;;;;;;;-144.99;100.00;52419.56;4994080;28;19930;-69
2023/04/13 07:56:29;;;;;;;;;;;;;;;-144.99;99.52;52395.09;4987833;28;19926;-68
2023/04/13 07:58:56;;;;;;;;;;;;;;;-144.99;99.01;52444.03;4999728;28;19926;-67
2023/04/13 08:01:25;;;;;;;;;;;;;;;-144.99;98.21;52419.56;4991071;28;19988;-67
2023/04/13 08:03:51;;;;;;;;;;;;;;;-144.99;98.17;52399.19;4992508;28;19996;-67
2023/04/13 08:06:19;;;;;;;;;;;;;;;-144.99;97.66;52399.19;4999730;28;20338;-67
2023/04/13 08:08:46;;;;;;;;;;;;;;;-144.99;96.78;52435.88;4994567;28;19926;-67
2023/04/13 08:11:12;;;;;;;;;;;;;;;-144.99;96.98;52419.56;5002512;28;19925;-67
2023/04/13 08:13:39;;;;;;;;;;;;;;;-144.99;96.91;52423.63;4986420;28;19930;-67
2023/04/13 08:16:07;;;;;;;;;;;;;;;-144.99;96.35;52409.38;4989472;28;20400;-67
2023/04/13 08:18:36;;;;;;;;;;;;;;;-144.99;96.07;52431.78;4993235;28;19925;-67
2023/04/13 08:21:06;;;;;;;;;;;;;;;-144.99;93.91;52391.03;4994230;28;19930;-67
2023/04/13 08:23:33;;;;;;;;;;;;;;;-144.99;93.43;52403.25;4997143;28;19984;-67
2023/04/13 08:26:01;;;;;;;;;;;;;;;-144.99;91.98;52380.84;4995638;28;19976;-67
2023/04/13 08:28:28;;;;;;;;;;;;;;;-144.99;90.99;52395.09;4998610;28;19926;-68
2023/04/13 08:30:54;;;;;;;;;;;;;;;-144.99;90.20;52419.56;4995784;28;19977;-68
2023/04/13 08:33:21;;;;;;;;;;;;;;;-144.99;89.92;52382.88;4988348;28;20336;-67
2023/04/13 08:35:50;;;;;;;;;;;;;;;-144.99;88.75;52388.97;4997535;28;19933;-68
2023/04/13 08:38:18;;;;;;;;;;;;;;;-144.99;87.93;52415.47;4989585;28;19934;-68
2023/04/13 08:40:45;;;;;;;;;;;;;;;-144.99;89.51;52423.63;4995529;28;19933;-66
2023/04/13 08:43:12;;;;;;;;;;;;;;;-144.99;88.22;52391.03;4995364;28;19980;-67
2023/04/13 08:45:41;;;;;;;;;;;;;;;-144.99;88.01;52407.31;5000075;28;20531;-68
2023/04/13 08:48:09;;;;;;;;;;;;;;;-144.99;87.48;52358.41;5003424;28;19977;-68
2023/04/13 08:50:36;;;;;;;;;;;;;;;-144.99;86.23;52380.84;4978993;28;19993;-68
2023/04/13 08:53:04;;;;;;;;;;;;;;;-144.99;86.11;52395.09;4989427;28;20300;-68
2023/04/13 08:55:30;;;;;;;;;;;;;;;-144.99;85.56;52417.53;4990229;28;19938;-68
2023/04/13 08:57:57;;;;;;;;;;;;;;;-144.99;86.83;52407.31;4999842;28;20019;-68
2023/04/13 09:00:24;;;;;;;;;;;;;;;-144.99;86.90;52407.31;4997157;28;20404;-67
2023/04/13 09:02:57;;;;;;;;;;;;;;;-144.99;86.22;52395.09;4998101;28;19926;-67
2023/04/13 09:05:25;;;;;;;;;;;;;;;-144.99;86.82;52423.63;4988579;28;19980;-68
2023/04/13 09:07:55;;;;;;;;;;;;;;;-144.99;89.23;52448.09;4999845;28;20031;-67
2023/04/13 09:10:25;;;;;;;;;;;;;;;-144.99;88.52;52423.63;4996058;28;19953;-67
2023/04/13 09:12:51;;;;;;;;;;;;;;;-144.99;88.78;52399.19;4985829;28;19926;-68
2023/04/13 09:15:18;;;;;;;;;;;;;;;-144.99;88.77;52401.22;4997794;28;19965;-68
2023/04/13 09:17:45;;;;;;;;;;;;;;;-144.99;88.67;52415.47;4995872;28;19929;-68
2023/04/13 09:20:14;;;;;;;;;;;;;;;-144.99;86.85;52421.59;4999087;28;20224;-67
2023/04/13 09:22:41;;;;;;;;;;;;;;;-144.99;85.75;52386.94;4997588;28;20018;-67
2023/04/13 09:25:19;;;;;;;;;;;;;;;-144.99;85.08;52399.19;4990948;28;19937;-67
2023/04/13 09:27:47;;;;;;;;;;;;;;;-144.99;84.04;52388.97;4990810;28;20000;-67
2023/04/13 09:30:13;;;;;;;;;;;;;;;-144.99;83.87;52354.34;4989092;28;19925;-66
2023/04/13 09:32:40;;;;;;;;;;;;;;;-144.99;83.04;52374.72;4982692;28;19930;-66
2023/04/13 09:35:07;;;;;;;;;;;;;;;-144.99;83.11;52356.38;4991426;28;19937;-67
2023/04/13 09:37:35;;;;;;;;;;;;;;;-144.99;82.16;52374.72;4990261;28;19939;-66
2023/04/13 09:40:09;;;;;;;;;;;;;;;-144.99;81.58;52370.63;4994341;28;19930;-66
2023/04/13 09:42:36;;;;;;;;;;;;;;;-144.99;81.11;52423.63;4991644;28;19930;-66
2023/04/13 09:45:05;;;;;;;;;;;;;;;-144.99;79.01;52309.50;4996470;28;19983;-66
2023/04/13 09:47:35;;;;;;;;;;;;;;;-144.99;79.10;52329.88;5002384;28;19978;-67
2023/04/13 09:50:03;;;;;;;;;;;;;;;-144.99;78.43;52346.19;4993529;28;20012;-66
2023/04/13 09:52:30;;;;;;;;;;;;;;;-144.99;76.66;52333.94;4992679;28;19961;-66
2023/04/13 09:54:57;;;;;;;;;;;;;;;-144.99;75.05;52360.44;4993914;28;19948;-66
2023/04/13 09:57:24;;;;;;;;;;;;;;;-144.99;75.50;52374.72;4993935;28;19968;-66
2023/04/13 09:59:51;;;;;;;;;;;;;;;-144.99;76.59;52409.38;4999393;28;19926;-66
2023/04/13 10:02:20;;;;;;;;;;;;;;;-144.99;76.33;52403.25;4990589;28;20025;-67
2023/04/13 10:04:46;;;;;;;;;;;;;;;-144.99;77.59;52399.19;4994115;28;20375;-67
2023/04/13 10:07:13;;;;;;;;;;;;;;;-144.99;78.24;52444.03;4999226;28;19930;-66
2023/04/13 10:09:40;;;;;;;;;;;;;;;-144.99;76.64;52419.56;4997422;28;19934;-66
2023/04/13 10:12:09;;;;;;;;;;;;;;;-144.99;76.79;52391.03;4990491;28;19938;-67
2023/04/13 10:14:38;;;;;;;;;;;;;;;-144.99;78.81;52431.78;4995443;28;20433;-66
2023/04/13 10:17:11;;;;;;;;;;;;;;;-144.99;79.84;52423.63;4993765;28;19937;-67
2023/04/13 10:19:42;;;;;;;;;;;;;;;-144.99;81.15;52423.63;4999703;28;19929;-67
2023/04/13 10:22:09;;;;;;;;;;;;;;;-144.99;80.92;52417.53;4996539;28;19932;-67
2023/04/13 10:24:36;;;;;;;;;;;;;;;-144.99;81.08;52395.09;4992402;28;19930;-67
2023/04/13 10:27:10;;;;;;;;;;;;;;;-144.99;79.95;52403.25;4990209;28;20359;-67
2023/04/13 10:29:36;;;;;;;;;;;;;;;-144.99;79.10;52433.81;4989776;28;20363;-67
2023/04/13 10:32:04;;;;;;;;;;;;;;;-144.99;77.97;52329.88;4988380;28;20376;-66
2023/04/13 10:34:31;;;;;;;;;;;;;;;-144.99;76.80;52354.34;4987132;28;19933;-65
2023/04/13 10:37:02;;;;;;;;;;;;;;;-144.99;76.31;52346.19;4989919;28;19926;-66
2023/04/13 10:39:29;;;;;;;;;;;;;;;-144.99;76.03;52350.25;4989217;28;19941;-66
2023/04/13 10:42:00;;;;;;;;;;;;;;;-144.99;75.94;52342.09;4994857;28;19937;-66
2023/04/13 10:44:26;;;;;;;;;;;;;;;-144.99;76.93;52338.03;4996163;28;20240;-66
2023/04/13 10:46:53;;;;;;;;;;;;;;;-144.99;76.17;52268.72;5001249;28;19926;-67
2023/04/13 10:49:30;;;;;;;;;;;;;;;-144.99;74.48;52264.66;4993585;28;19926;-69
2023/04/13 10:51:56;;;;;;;;;;;;;;;-144.99;73.45;52244.28;4986609;28;20417;-68
2023/04/13 10:54:26;;;;;;;;;;;;;;;-144.99;72.13;52215.75;4992804;28;19929;-65
2023/04/13 10:56:56;;;;;;;;;;;;;;;-144.99;70.66;52219.81;4990066;28;19949;-66
2023/04/13 10:59:22;;;;;;;;;;;;;;;-144.99;71.51;52230.00;4986772;28;20028;-66
2023/04/13 11:01:49;;;;;;;;;;;;;;;-144.99;70.70;52195.34;4994169;28;20417;-66
2023/04/13 11:04:17;;;;;;;;;;;;;;;-144.99;70.60;52215.75;4990358;28;19966;-66
2023/04/13 11:06:43;;;;;;;;;;;;;;;-144.99;69.09;52191.28;4996428;28;19932;-66
2023/04/13 11:09:10;;;;;;;;;;;;;;;-144.99;68.93;52195.34;4990212;28;20012;-66
2023/04/13 11:11:39;;;;;;;;;;;;;;;-144.99;68.25;52174.97;4991491;28;19956;-66
2023/04/13 11:14:06;;;;;;;;;;;;;;;-144.99;69.97;52301.34;4986195;28;20398;-65
2023/04/13 11:16:43;;;;;;;;;;;;;;;-144.99;71.26;52321.72;4992071;28;19969;-68
2023/04/13 11:19:09;;;;;;;;;;;;;;;-144.99;72.19;52211.66;4997099;28;19933;-68
2023/04/13 11:21:36;;;;;;;;;;;;;;;-144.99;71.78;52223.88;4992618;28;19942;-69
2023/04/13 11:24:02;;;;;;;;;;;;;;;-144.99;71.32;52183.13;4993405;28;19929;-68
2023/04/13 11:26:33;;;;;;;;;;;;;;;-144.99;70.24;52272.81;4995455;28;19965;-67
2023/04/13 11:29:02;;;;;;;;;;;;;;;-144.99;70.72;52199.44;4998895;28;20020;-68
2023/04/13 11:31:36;;;;;;;;;;;;;;;-144.99;71.12;52342.09;4995891;28;20367;-65
2023/04/13 11:34:04;;;;;;;;;;;;;;;-144.99;71.89;52358.41;4995689;28;19929;-66
2023/04/13 11:36:31;;;;;;;;;;;;;;;-144.99;73.56;52195.34;4999913;28;19933;-66
2023/04/13 11:38:58;;;;;;;;;;;;;;;-144.99;76.82;52358.41;4995714;28;19926;-65
2023/04/13 11:41:26;;;;;;;;;;;;;;;-144.99;77.09;52338.03;4998946;28;20221;-65
2023/04/13 11:43:52;;;;;;;;;;;;;;;-144.99;74.71;52219.81;5000932;28;19992;-66
2023/04/13 11:46:23;;;;;;;;;;;;;;;-144.99;73.31;52150.53;5000661;28;19929;-65
2023/04/13 11:48:51;;;;;;;;;;;;;;;-144.99;72.19;52227.97;5006399;28;19933;-65
2023/04/13 11:51:17;;;;;;;;;;;;;;;-144.99;70.85;52317.66;4994988;28;19926;-65
2023/04/13 11:53:45;;;;;;;;;;;;;;;-144.99;71.88;52248.34;4996408;28;19968;-66
2023/04/13 11:56:13;;;;;;;;;;;;;;;-144.99;71.97;52313.56;4995609;28;19926;-65
2023/04/13 11:58:41;;;;;;;;;;;;;;;-144.99;71.50;52338.03;4994080;28;19960;-65
2023/04/13 12:01:08;;;;;;;;;;;;;;;-144.99;71.85;52146.44;4985485;28;20244;-67
2023/04/13 12:03:38;;;;;;;;;;;;;;;-144.99;72.38;52366.56;4990149;28;20002;-69
2023/04/13 12:06:05;;;;;;;;;;;;;;;-144.99;72.72;52301.34;4995951;28;20031;-67
2023/04/13 12:08:32;;;;;;;;;;;;;;;-144.99;73.13;52338.03;4992875;28;20003;-67
2023/04/13 12:11:02;;;;;;;;;;;;;;;-144.99;71.98;52256.50;4993082;28;19968;-67
2023/04/13 12:13:38;;;;;;;;;;;;;;;-144.99;72.13;52201.47;4990698;28;20017;-69
2023/04/13 12:16:04;;;;;;;;;;;;;;;-144.99;71.55;52366.56;4995756;28;20391;-67
2023/04/13 12:18:31;;;;;;;;;;;;;;;-144.99;71.60;52329.88;4984212;28;20058;-66
2023/04/13 12:21:01;;;;;;;;;;;;;;;-144.99;71.56;52223.88;4998441;28;19925;-66
2023/04/13 12:23:28;;;;;;;;;;;;;;;-144.99;70.44;52172.94;4995922;28;19926;-65